Terminal Aerodrome Forecast
Issued by NWS Mt. Holly, NJ

Current Version | Previous Version | Text Only | Print | Product List | Glossary On
Versions: 1 2 3 4 5 6 7 8 9 10 11 12 13
000
FTUS41 KPHI 230500
TAFABE
TAF
KABE 230533Z 2306/2406 27010G15KT P6SM SCT080
     FM231200 32020G30KT P6SM SCT040
     FM240000 31015G25KT P6SM SCT250
     FM240500 31015KT P6SM SKC=

USA.gov is the U.S. government's official web portal to all federal, state and local government web resources and services.